sensor_id;sensor_type;location;lat;lon;timestamp;P1;durP1;ratioP1;P2;durP2;ratioP2
9496;SDS011;4786;51.270;4.456;2023-08-20T00:01:44;6.22;;;2.85;;
9496;SDS011;4786;51.270;4.456;2023-08-20T00:04:10;6.38;;;2.70;;
9496;SDS011;4786;51.270;4.456;2023-08-20T00:06:37;8.60;;;2.78;;
9496;SDS011;4786;51.270;4.456;2023-08-20T00:09:04;7.50;;;2.75;;
9496;SDS011;4786;51.270;4.456;2023-08-20T00:11:32;7.50;;;2.65;;
9496;SDS011;4786;51.270;4.456;2023-08-20T00:13:57;5.88;;;2.33;;
9496;SDS011;4786;51.270;4.456;2023-08-20T00:16:24;5.07;;;2.50;;
9496;SDS011;4786;51.270;4.456;2023-08-20T00:18:50;6.80;;;2.85;;
9496;SDS011;4786;51.270;4.456;2023-08-20T00:21:16;5.90;;;2.47;;
9496;SDS011;4786;51.270;4.456;2023-08-20T00:23:43;7.38;;;2.90;;
9496;SDS011;4786;51.270;4.456;2023-08-20T00:26:09;6.90;;;2.95;;
9496;SDS011;4786;51.270;4.456;2023-08-20T00:28:36;6.00;;;2.83;;
9496;SDS011;4786;51.270;4.456;2023-08-20T00:31:03;6.90;;;2.95;;
9496;SDS011;4786;51.270;4.456;2023-08-20T00:33:31;6.43;;;3.38;;
9496;SDS011;4786;51.270;4.456;2023-08-20T00:35:57;7.80;;;3.22;;
9496;SDS011;4786;51.270;4.456;2023-08-20T00:38:23;5.80;;;2.95;;
9496;SDS011;4786;51.270;4.456;2023-08-20T00:40:49;7.40;;;3.42;;
9496;SDS011;4786;51.270;4.456;2023-08-20T00:43:15;7.68;;;3.30;;
9496;SDS011;4786;51.270;4.456;2023-08-20T00:45:42;6.80;;;2.80;;
9496;SDS011;4786;51.270;4.456;2023-08-20T00:48:08;9.27;;;3.25;;
9496;SDS011;4786;51.270;4.456;2023-08-20T00:50:34;8.88;;;3.20;;
9496;SDS011;4786;51.270;4.456;2023-08-20T00:53:01;11.15;;;3.10;;
9496;SDS011;4786;51.270;4.456;2023-08-20T00:55:27;9.00;;;3.17;;
9496;SDS011;4786;51.270;4.456;2023-08-20T00:57:53;7.47;;;3.60;;
9496;SDS011;4786;51.270;4.456;2023-08-20T01:00:20;6.50;;;3.60;;
9496;SDS011;4786;51.270;4.456;2023-08-20T01:02:48;8.48;;;3.30;;
9496;SDS011;4786;51.270;4.456;2023-08-20T01:05:14;10.45;;;3.60;;
9496;SDS011;4786;51.270;4.456;2023-08-20T01:07:50;7.82;;;3.47;;
9496;SDS011;4786;51.270;4.456;2023-08-20T01:10:39;7.63;;;3.42;;
9496;SDS011;4786;51.270;4.456;2023-08-20T01:13:12;7.35;;;3.70;;
9496;SDS011;4786;51.270;4.456;2023-08-20T01:15:38;8.00;;;3.13;;
9496;SDS011;4786;51.270;4.456;2023-08-20T01:18:04;6.20;;;2.90;;
9496;SDS011;4786;51.270;4.456;2023-08-20T01:20:33;7.15;;;3.10;;
9496;SDS011;4786;51.270;4.456;2023-08-20T01:28:48;6.70;;;2.88;;
9496;SDS011;4786;51.270;4.456;2023-08-20T01:31:14;7.72;;;3.15;;
9496;SDS011;4786;51.270;4.456;2023-08-20T01:33:41;7.20;;;3.45;;
9496;SDS011;4786;51.270;4.456;2023-08-20T01:36:07;5.50;;;2.85;;
9496;SDS011;4786;51.270;4.456;2023-08-20T01:38:36;7.40;;;3.38;;
9496;SDS011;4786;51.270;4.456;2023-08-20T01:41:03;7.00;;;3.22;;
9496;SDS011;4786;51.270;4.456;2023-08-20T01:43:29;7.80;;;3.33;;
9496;SDS011;4786;51.270;4.456;2023-08-20T01:45:55;6.32;;;3.10;;
9496;SDS011;4786;51.270;4.456;2023-08-20T01:48:20;8.23;;;3.30;;
9496;SDS011;4786;51.270;4.456;2023-08-20T01:50:47;7.53;;;3.15;;
9496;SDS011;4786;51.270;4.456;2023-08-20T01:53:13;7.32;;;2.58;;
9496;SDS011;4786;51.270;4.456;2023-08-20T01:55:39;8.13;;;3.00;;
9496;SDS011;4786;51.270;4.456;2023-08-20T01:58:05;7.45;;;3.15;;
9496;SDS011;4786;51.270;4.456;2023-08-20T02:00:31;5.13;;;2.75;;
9496;SDS011;4786;51.270;4.456;2023-08-20T02:02:58;7.50;;;3.20;;
9496;SDS011;4786;51.270;4.456;2023-08-20T02:05:24;6.15;;;3.20;;
9496;SDS011;4786;51.270;4.456;2023-08-20T02:07:51;6.97;;;2.78;;
9496;SDS011;4786;51.270;4.456;2023-08-20T02:10:17;7.30;;;3.30;;
9496;SDS011;4786;51.270;4.456;2023-08-20T02:12:43;5.95;;;2.97;;
9496;SDS011;4786;51.270;4.456;2023-08-20T02:15:09;5.25;;;2.63;;
9496;SDS011;4786;51.270;4.456;2023-08-20T02:17:38;6.82;;;2.90;;
9496;SDS011;4786;51.270;4.456;2023-08-20T02:20:04;5.47;;;3.40;;
9496;SDS011;4786;51.270;4.456;2023-08-20T02:22:30;8.35;;;3.28;;
9496;SDS011;4786;51.270;4.456;2023-08-20T02:24:57;5.78;;;3.10;;
9496;SDS011;4786;51.270;4.456;2023-08-20T02:27:23;4.22;;;2.97;;
9496;SDS011;4786;51.270;4.456;2023-08-20T02:29:49;8.27;;;3.00;;
9496;SDS011;4786;51.270;4.456;2023-08-20T02:32:15;6.90;;;3.00;;
9496;SDS011;4786;51.270;4.456;2023-08-20T02:34:41;7.72;;;2.92;;
9496;SDS011;4786;51.270;4.456;2023-08-20T02:37:07;9.25;;;3.00;;
9496;SDS011;4786;51.270;4.456;2023-08-20T02:39:32;5.15;;;2.72;;
9496;SDS011;4786;51.270;4.456;2023-08-20T02:41:58;8.50;;;3.33;;
9496;SDS011;4786;51.270;4.456;2023-08-20T02:44:24;7.55;;;2.78;;
9496;SDS011;4786;51.270;4.456;2023-08-20T02:46:50;7.25;;;3.38;;
9496;SDS011;4786;51.270;4.456;2023-08-20T02:49:16;7.57;;;2.75;;
9496;SDS011;4786;51.270;4.456;2023-08-20T02:51:43;6.47;;;3.28;;
9496;SDS011;4786;51.270;4.456;2023-08-20T02:54:08;7.13;;;3.03;;
9496;SDS011;4786;51.270;4.456;2023-08-20T02:56:35;6.80;;;3.00;;
9496;SDS011;4786;51.270;4.456;2023-08-20T02:59:01;5.93;;;2.97;;
9496;SDS011;4786;51.270;4.456;2023-08-20T03:01:27;8.73;;;2.88;;
9496;SDS011;4786;51.270;4.456;2023-08-20T03:03:53;8.48;;;3.30;;
9496;SDS011;4786;51.270;4.456;2023-08-20T03:06:19;6.18;;;2.80;;
9496;SDS011;4786;51.270;4.456;2023-08-20T03:08:45;9.60;;;3.42;;
9496;SDS011;4786;51.270;4.456;2023-08-20T03:11:11;7.03;;;3.20;;
9496;SDS011;4786;51.270;4.456;2023-08-20T03:13:37;6.05;;;2.90;;
9496;SDS011;4786;51.270;4.456;2023-08-20T03:16:03;6.80;;;3.03;;
9496;SDS011;4786;51.270;4.456;2023-08-20T03:18:29;6.68;;;3.00;;
9496;SDS011;4786;51.270;4.456;2023-08-20T03:20:55;6.22;;;3.20;;
9496;SDS011;4786;51.270;4.456;2023-08-20T03:23:23;5.40;;;3.05;;
9496;SDS011;4786;51.270;4.456;2023-08-20T03:25:49;7.13;;;3.13;;
9496;SDS011;4786;51.270;4.456;2023-08-20T03:28:17;6.38;;;3.33;;
9496;SDS011;4786;51.270;4.456;2023-08-20T03:30:44;4.72;;;2.70;;
9496;SDS011;4786;51.270;4.456;2023-08-20T03:33:10;4.82;;;3.00;;
9496;SDS011;4786;51.270;4.456;2023-08-20T03:35:36;6.78;;;2.97;;
9496;SDS011;4786;51.270;4.456;2023-08-20T03:38:02;5.35;;;2.80;;
9496;SDS011;4786;51.270;4.456;2023-08-20T03:40:28;4.65;;;2.70;;
9496;SDS011;4786;51.270;4.456;2023-08-20T03:42:54;6.13;;;2.90;;
9496;SDS011;4786;51.270;4.456;2023-08-20T03:45:20;5.63;;;2.87;;
9496;SDS011;4786;51.270;4.456;2023-08-20T03:47:46;6.75;;;3.10;;
9496;SDS011;4786;51.270;4.456;2023-08-20T03:50:12;5.55;;;2.67;;
9496;SDS011;4786;51.270;4.456;2023-08-20T03:52:38;6.30;;;2.78;;
9496;SDS011;4786;51.270;4.456;2023-08-20T03:55:04;6.80;;;2.50;;
9496;SDS011;4786;51.270;4.456;2023-08-20T03:57:31;6.40;;;2.90;;
9496;SDS011;4786;51.270;4.456;2023-08-20T03:59:56;5.60;;;3.00;;
9496;SDS011;4786;51.270;4.456;2023-08-20T04:02:23;4.83;;;2.60;;
9496;SDS011;4786;51.270;4.456;2023-08-20T04:04:48;7.87;;;3.20;;
9496;SDS011;4786;51.270;4.456;2023-08-20T04:07:14;6.70;;;3.00;;
9496;SDS011;4786;51.270;4.456;2023-08-20T04:09:40;4.40;;;2.80;;
9496;SDS011;4786;51.270;4.456;2023-08-20T04:12:07;5.13;;;3.10;;
9496;SDS011;4786;51.270;4.456;2023-08-20T04:14:33;6.78;;;2.65;;
9496;SDS011;4786;51.270;4.456;2023-08-20T04:16:59;6.47;;;2.97;;
9496;SDS011;4786;51.270;4.456;2023-08-20T04:19:25;6.07;;;2.97;;
9496;SDS011;4786;51.270;4.456;2023-08-20T04:21:51;6.28;;;3.00;;
9496;SDS011;4786;51.270;4.456;2023-08-20T04:24:16;5.60;;;2.93;;
9496;SDS011;4786;51.270;4.456;2023-08-20T04:26:43;6.88;;;3.03;;
9496;SDS011;4786;51.270;4.456;2023-08-20T04:29:09;5.93;;;3.20;;
9496;SDS011;4786;51.270;4.456;2023-08-20T04:31:35;7.67;;;3.23;;
9496;SDS011;4786;51.270;4.456;2023-08-20T04:34:01;6.33;;;3.30;;
9496;SDS011;4786;51.270;4.456;2023-08-20T04:36:27;4.32;;;2.90;;
9496;SDS011;4786;51.270;4.456;2023-08-20T04:38:54;5.13;;;2.92;;
9496;SDS011;4786;51.270;4.456;2023-08-20T04:41:19;5.97;;;3.10;;
9496;SDS011;4786;51.270;4.456;2023-08-20T04:43:45;5.50;;;2.83;;
9496;SDS011;4786;51.270;4.456;2023-08-20T04:46:11;6.23;;;2.90;;
9496;SDS011;4786;51.270;4.456;2023-08-20T04:48:37;5.73;;;2.77;;
9496;SDS011;4786;51.270;4.456;2023-08-20T04:51:04;5.40;;;2.70;;
9496;SDS011;4786;51.270;4.456;2023-08-20T04:53:30;6.15;;;2.88;;
9496;SDS011;4786;51.270;4.456;2023-08-20T04:55:57;4.93;;;3.10;;
9496;SDS011;4786;51.270;4.456;2023-08-20T04:58:23;8.07;;;3.33;;
9496;SDS011;4786;51.270;4.456;2023-08-20T05:00:49;5.97;;;3.00;;
9496;SDS011;4786;51.270;4.456;2023-08-20T05:03:15;5.80;;;2.88;;
9496;SDS011;4786;51.270;4.456;2023-08-20T05:05:41;6.83;;;3.10;;
9496;SDS011;4786;51.270;4.456;2023-08-20T05:08:07;5.77;;;3.03;;
9496;SDS011;4786;51.270;4.456;2023-08-20T05:10:35;5.20;;;3.15;;
9496;SDS011;4786;51.270;4.456;2023-08-20T05:13:02;7.10;;;3.00;;
9496;SDS011;4786;51.270;4.456;2023-08-20T05:15:28;5.57;;;3.10;;
9496;SDS011;4786;51.270;4.456;2023-08-20T05:17:54;7.27;;;2.70;;
9496;SDS011;4786;51.270;4.456;2023-08-20T05:20:20;4.87;;;3.00;;
9496;SDS011;4786;51.270;4.456;2023-08-20T05:22:46;6.23;;;3.00;;
9496;SDS011;4786;51.270;4.456;2023-08-20T05:25:13;4.82;;;3.13;;
9496;SDS011;4786;51.270;4.456;2023-08-20T05:27:39;5.47;;;2.90;;
9496;SDS011;4786;51.270;4.456;2023-08-20T05:30:05;5.07;;;2.77;;
9496;SDS011;4786;51.270;4.456;2023-08-20T05:32:33;4.23;;;2.80;;
9496;SDS011;4786;51.270;4.456;2023-08-20T05:34:59;5.00;;;2.60;;
9496;SDS011;4786;51.270;4.456;2023-08-20T05:37:25;4.43;;;2.47;;
9496;SDS011;4786;51.270;4.456;2023-08-20T05:39:51;4.10;;;2.47;;
9496;SDS011;4786;51.270;4.456;2023-08-20T05:42:17;7.03;;;3.03;;
9496;SDS011;4786;51.270;4.456;2023-08-20T05:44:42;4.40;;;2.50;;
9496;SDS011;4786;51.270;4.456;2023-08-20T05:47:09;4.60;;;2.77;;
9496;SDS011;4786;51.270;4.456;2023-08-20T05:49:35;3.72;;;2.47;;
9496;SDS011;4786;51.270;4.456;2023-08-20T05:52:01;2.78;;;2.42;;
9496;SDS011;4786;51.270;4.456;2023-08-20T05:54:27;3.25;;;2.40;;
9496;SDS011;4786;51.270;4.456;2023-08-20T05:56:53;5.03;;;2.33;;
9496;SDS011;4786;51.270;4.456;2023-08-20T05:59:19;2.83;;;2.05;;
9496;SDS011;4786;51.270;4.456;2023-08-20T06:01:44;4.88;;;2.33;;
9496;SDS011;4786;51.270;4.456;2023-08-20T06:04:10;4.90;;;2.55;;
9496;SDS011;4786;51.270;4.456;2023-08-20T06:06:36;3.47;;;2.30;;
9496;SDS011;4786;51.270;4.456;2023-08-20T06:09:02;4.60;;;2.03;;
9496;SDS011;4786;51.270;4.456;2023-08-20T06:11:28;5.45;;;2.33;;
9496;SDS011;4786;51.270;4.456;2023-08-20T06:13:54;4.88;;;2.55;;
9496;SDS011;4786;51.270;4.456;2023-08-20T06:16:20;5.00;;;2.40;;
9496;SDS011;4786;51.270;4.456;2023-08-20T06:18:45;4.50;;;2.58;;
9496;SDS011;4786;51.270;4.456;2023-08-20T06:21:11;4.78;;;2.40;;
9496;SDS011;4786;51.270;4.456;2023-08-20T06:23:38;5.72;;;2.67;;
9496;SDS011;4786;51.270;4.456;2023-08-20T06:26:03;3.95;;;2.58;;
9496;SDS011;4786;51.270;4.456;2023-08-20T06:28:29;4.45;;;2.72;;
9496;SDS011;4786;51.270;4.456;2023-08-20T06:30:55;5.05;;;2.55;;
9496;SDS011;4786;51.270;4.456;2023-08-20T06:33:21;4.45;;;2.58;;
9496;SDS011;4786;51.270;4.456;2023-08-20T06:35:47;6.32;;;3.20;;
9496;SDS011;4786;51.270;4.456;2023-08-20T06:38:12;7.57;;;3.10;;
9496;SDS011;4786;51.270;4.456;2023-08-20T06:40:38;6.95;;;2.97;;
9496;SDS011;4786;51.270;4.456;2023-08-20T06:43:04;6.05;;;2.90;;
9496;SDS011;4786;51.270;4.456;2023-08-20T06:45:30;7.07;;;3.25;;
9496;SDS011;4786;51.270;4.456;2023-08-20T06:47:56;8.95;;;6.22;;
9496;SDS011;4786;51.270;4.456;2023-08-20T06:50:23;9.88;;;7.82;;
9496;SDS011;4786;51.270;4.456;2023-08-20T06:52:48;12.05;;;10.85;;
9496;SDS011;4786;51.270;4.456;2023-08-20T06:55:14;18.70;;;17.02;;
9496;SDS011;4786;51.270;4.456;2023-08-20T06:57:40;24.42;;;22.20;;
9496;SDS011;4786;51.270;4.456;2023-08-20T07:00:06;20.00;;;18.17;;
9496;SDS011;4786;51.270;4.456;2023-08-20T07:02:32;22.40;;;20.30;;
9496;SDS011;4786;51.270;4.456;2023-08-20T07:04:57;15.38;;;14.02;;
9496;SDS011;4786;51.270;4.456;2023-08-20T07:07:23;14.43;;;11.48;;
9496;SDS011;4786;51.270;4.456;2023-08-20T07:09:49;10.30;;;9.23;;
9496;SDS011;4786;51.270;4.456;2023-08-20T07:12:15;13.05;;;8.18;;
9496;SDS011;4786;51.270;4.456;2023-08-20T07:14:41;10.60;;;6.35;;
9496;SDS011;4786;51.270;4.456;2023-08-20T07:17:07;10.77;;;6.32;;
9496;SDS011;4786;51.270;4.456;2023-08-20T07:19:33;10.10;;;5.15;;
9496;SDS011;4786;51.270;4.456;2023-08-20T07:21:59;10.25;;;4.88;;
9496;SDS011;4786;51.270;4.456;2023-08-20T07:24:25;8.30;;;4.53;;
9496;SDS011;4786;51.270;4.456;2023-08-20T07:26:51;8.13;;;4.32;;
9496;SDS011;4786;51.270;4.456;2023-08-20T07:29:18;8.43;;;3.78;;
9496;SDS011;4786;51.270;4.456;2023-08-20T07:31:44;8.15;;;4.28;;
9496;SDS011;4786;51.270;4.456;2023-08-20T07:34:09;9.63;;;4.30;;
9496;SDS011;4786;51.270;4.456;2023-08-20T07:36:35;10.98;;;4.18;;
9496;SDS011;4786;51.270;4.456;2023-08-20T07:39:01;8.38;;;3.78;;
9496;SDS011;4786;51.270;4.456;2023-08-20T07:41:28;11.88;;;4.00;;
9496;SDS011;4786;51.270;4.456;2023-08-20T07:43:53;9.73;;;3.97;;
9496;SDS011;4786;51.270;4.456;2023-08-20T07:46:19;8.77;;;3.58;;
9496;SDS011;4786;51.270;4.456;2023-08-20T07:48:45;6.53;;;3.30;;
9496;SDS011;4786;51.270;4.456;2023-08-20T07:51:11;8.10;;;3.15;;
9496;SDS011;4786;51.270;4.456;2023-08-20T07:53:37;6.00;;;2.92;;
9496;SDS011;4786;51.270;4.456;2023-08-20T07:56:03;8.82;;;3.30;;
9496;SDS011;4786;51.270;4.456;2023-08-20T07:58:29;8.52;;;3.38;;
9496;SDS011;4786;51.270;4.456;2023-08-20T08:00:55;8.55;;;3.17;;
9496;SDS011;4786;51.270;4.456;2023-08-20T08:03:22;9.60;;;3.30;;
9496;SDS011;4786;51.270;4.456;2023-08-20T08:05:50;8.05;;;2.88;;
9496;SDS011;4786;51.270;4.456;2023-08-20T08:08:17;5.28;;;2.80;;
9496;SDS011;4786;51.270;4.456;2023-08-20T08:10:44;7.30;;;3.05;;
9496;SDS011;4786;51.270;4.456;2023-08-20T08:13:11;7.90;;;3.20;;
9496;SDS011;4786;51.270;4.456;2023-08-20T08:15:38;8.23;;;3.33;;
9496;SDS011;4786;51.270;4.456;2023-08-20T08:18:05;9.15;;;3.10;;
9496;SDS011;4786;51.270;4.456;2023-08-20T08:20:32;7.35;;;3.10;;
9496;SDS011;4786;51.270;4.456;2023-08-20T08:22:58;7.90;;;3.40;;
9496;SDS011;4786;51.270;4.456;2023-08-20T08:25:24;6.65;;;2.65;;
9496;SDS011;4786;51.270;4.456;2023-08-20T08:27:50;6.78;;;3.20;;
9496;SDS011;4786;51.270;4.456;2023-08-20T08:30:16;8.13;;;3.42;;
9496;SDS011;4786;51.270;4.456;2023-08-20T08:32:42;9.57;;;3.92;;
9496;SDS011;4786;51.270;4.456;2023-08-20T08:35:08;8.25;;;3.40;;
9496;SDS011;4786;51.270;4.456;2023-08-20T08:37:34;7.47;;;3.20;;
9496;SDS011;4786;51.270;4.456;2023-08-20T08:39:59;7.85;;;3.05;;
9496;SDS011;4786;51.270;4.456;2023-08-20T08:42:26;8.40;;;3.65;;
9496;SDS011;4786;51.270;4.456;2023-08-20T08:44:52;10.02;;;3.33;;
9496;SDS011;4786;51.270;4.456;2023-08-20T08:47:21;8.48;;;3.22;;
9496;SDS011;4786;51.270;4.456;2023-08-20T08:49:47;6.78;;;3.25;;
9496;SDS011;4786;51.270;4.456;2023-08-20T08:52:15;5.95;;;3.20;;
9496;SDS011;4786;51.270;4.456;2023-08-20T08:54:41;6.75;;;3.33;;
9496;SDS011;4786;51.270;4.456;2023-08-20T08:57:07;6.95;;;3.03;;
9496;SDS011;4786;51.270;4.456;2023-08-20T08:59:33;6.95;;;3.40;;
9496;SDS011;4786;51.270;4.456;2023-08-20T09:01:59;7.78;;;3.53;;
9496;SDS011;4786;51.270;4.456;2023-08-20T09:04:25;8.38;;;3.30;;
9496;SDS011;4786;51.270;4.456;2023-08-20T09:06:52;5.75;;;2.80;;
9496;SDS011;4786;51.270;4.456;2023-08-20T09:09:20;7.30;;;3.00;;
9496;SDS011;4786;51.270;4.456;2023-08-20T09:11:47;7.60;;;3.50;;
9496;SDS011;4786;51.270;4.456;2023-08-20T09:14:24;8.00;;;3.28;;
9496;SDS011;4786;51.270;4.456;2023-08-20T09:17:02;7.82;;;3.67;;
9496;SDS011;4786;51.270;4.456;2023-08-20T09:19:29;10.20;;;3.30;;
9496;SDS011;4786;51.270;4.456;2023-08-20T09:22:00;8.90;;;3.38;;
9496;SDS011;4786;51.270;4.456;2023-08-20T09:24:34;6.97;;;2.92;;
9496;SDS011;4786;51.270;4.456;2023-08-20T09:27:21;7.72;;;3.38;;
9496;SDS011;4786;51.270;4.456;2023-08-20T09:29:52;7.07;;;3.30;;
9496;SDS011;4786;51.270;4.456;2023-08-20T09:32:23;9.23;;;3.30;;
9496;SDS011;4786;51.270;4.456;2023-08-20T09:34:52;9.70;;;3.55;;
9496;SDS011;4786;51.270;4.456;2023-08-20T09:37:19;7.40;;;3.00;;
9496;SDS011;4786;51.270;4.456;2023-08-20T09:39:49;8.55;;;3.08;;
9496;SDS011;4786;51.270;4.456;2023-08-20T09:42:16;6.05;;;2.95;;
9496;SDS011;4786;51.270;4.456;2023-08-20T09:44:43;8.38;;;3.30;;
9496;SDS011;4786;51.270;4.456;2023-08-20T09:47:13;6.78;;;2.97;;
9496;SDS011;4786;51.270;4.456;2023-08-20T09:49:49;7.07;;;3.13;;
9496;SDS011;4786;51.270;4.456;2023-08-20T09:52:25;7.82;;;3.28;;
9496;SDS011;4786;51.270;4.456;2023-08-20T09:54:59;5.70;;;2.88;;
9496;SDS011;4786;51.270;4.456;2023-08-20T09:57:33;8.82;;;3.85;;
9496;SDS011;4786;51.270;4.456;2023-08-20T10:00:03;7.75;;;2.85;;
9496;SDS011;4786;51.270;4.456;2023-08-20T10:02:31;17.02;;;6.45;;
9496;SDS011;4786;51.270;4.456;2023-08-20T10:04:58;13.75;;;5.53;;
9496;SDS011;4786;51.270;4.456;2023-08-20T10:07:28;9.93;;;3.45;;
9496;SDS011;4786;51.270;4.456;2023-08-20T10:09:56;13.77;;;4.43;;
9496;SDS011;4786;51.270;4.456;2023-08-20T10:12:25;7.68;;;2.67;;
9496;SDS011;4786;51.270;4.456;2023-08-20T10:14:55;7.15;;;2.70;;
9496;SDS011;4786;51.270;4.456;2023-08-20T10:17:22;7.57;;;2.90;;
9496;SDS011;4786;51.270;4.456;2023-08-20T10:19:49;6.90;;;2.60;;
9496;SDS011;4786;51.270;4.456;2023-08-20T10:22:16;5.70;;;2.20;;
9496;SDS011;4786;51.270;4.456;2023-08-20T10:24:49;6.53;;;2.60;;
9496;SDS011;4786;51.270;4.456;2023-08-20T10:27:24;5.57;;;2.53;;
9496;SDS011;4786;51.270;4.456;2023-08-20T10:29:51;6.63;;;2.67;;
9496;SDS011;4786;51.270;4.456;2023-08-20T10:32:18;6.20;;;2.50;;
9496;SDS011;4786;51.270;4.456;2023-08-20T10:34:50;4.10;;;2.10;;
9496;SDS011;4786;51.270;4.456;2023-08-20T10:37:27;4.45;;;2.13;;
9496;SDS011;4786;51.270;4.456;2023-08-20T10:39:54;6.95;;;2.13;;
9496;SDS011;4786;51.270;4.456;2023-08-20T10:42:26;4.75;;;2.05;;
9496;SDS011;4786;51.270;4.456;2023-08-20T10:44:56;4.43;;;2.20;;
9496;SDS011;4786;51.270;4.456;2023-08-20T10:47:24;5.03;;;2.30;;
9496;SDS011;4786;51.270;4.456;2023-08-20T10:49:53;6.60;;;2.40;;
9496;SDS011;4786;51.270;4.456;2023-08-20T10:52:24;3.90;;;1.85;;
9496;SDS011;4786;51.270;4.456;2023-08-20T10:54:50;6.10;;;2.17;;
9496;SDS011;4786;51.270;4.456;2023-08-20T10:57:17;5.47;;;1.77;;
9496;SDS011;4786;51.270;4.456;2023-08-20T10:59:51;3.78;;;1.80;;
9496;SDS011;4786;51.270;4.456;2023-08-20T11:02:23;4.65;;;1.88;;
9496;SDS011;4786;51.270;4.456;2023-08-20T11:04:50;3.55;;;1.88;;
9496;SDS011;4786;51.270;4.456;2023-08-20T11:07:17;3.67;;;1.83;;
9496;SDS011;4786;51.270;4.456;2023-08-20T11:09:44;4.90;;;1.85;;
9496;SDS011;4786;51.270;4.456;2023-08-20T11:12:14;4.20;;;1.70;;
9496;SDS011;4786;51.270;4.456;2023-08-20T11:14:40;3.65;;;1.83;;
9496;SDS011;4786;51.270;4.456;2023-08-20T11:17:06;4.50;;;2.00;;
9496;SDS011;4786;51.270;4.456;2023-08-20T11:19:33;2.90;;;1.67;;
9496;SDS011;4786;51.270;4.456;2023-08-20T11:21:59;2.30;;;1.70;;
9496;SDS011;4786;51.270;4.456;2023-08-20T11:24:28;2.85;;;1.40;;
9496;SDS011;4786;51.270;4.456;2023-08-20T11:26:54;5.25;;;1.75;;
9496;SDS011;4786;51.270;4.456;2023-08-20T11:29:24;3.47;;;1.80;;
9496;SDS011;4786;51.270;4.456;2023-08-20T11:31:51;4.00;;;1.65;;
9496;SDS011;4786;51.270;4.456;2023-08-20T11:34:18;2.78;;;1.65;;
9496;SDS011;4786;51.270;4.456;2023-08-20T11:36:44;3.85;;;2.05;;
9496;SDS011;4786;51.270;4.456;2023-08-20T11:39:10;3.10;;;1.90;;
9496;SDS011;4786;51.270;4.456;2023-08-20T11:41:37;4.85;;;2.30;;
9496;SDS011;4786;51.270;4.456;2023-08-20T11:44:04;5.25;;;2.10;;
9496;SDS011;4786;51.270;4.456;2023-08-20T11:46:30;5.85;;;2.13;;
9496;SDS011;4786;51.270;4.456;2023-08-20T11:49:03;4.25;;;1.83;;
9496;SDS011;4786;51.270;4.456;2023-08-20T11:51:40;4.55;;;1.92;;
9496;SDS011;4786;51.270;4.456;2023-08-20T11:54:15;6.32;;;2.15;;
9496;SDS011;4786;51.270;4.456;2023-08-20T11:56:46;5.50;;;2.45;;
9496;SDS011;4786;51.270;4.456;2023-08-20T11:59:13;5.60;;;2.10;;
9496;SDS011;4786;51.270;4.456;2023-08-20T12:01:40;5.00;;;1.73;;
9496;SDS011;4786;51.270;4.456;2023-08-20T12:04:07;4.47;;;2.00;;
9496;SDS011;4786;51.270;4.456;2023-08-20T12:06:35;5.88;;;2.10;;
9496;SDS011;4786;51.270;4.456;2023-08-20T12:09:02;6.15;;;2.15;;
9496;SDS011;4786;51.270;4.456;2023-08-20T12:11:51;5.03;;;1.83;;
9496;SDS011;4786;51.270;4.456;2023-08-20T12:14:20;4.82;;;1.90;;
9496;SDS011;4786;51.270;4.456;2023-08-20T12:16:47;3.90;;;1.63;;
9496;SDS011;4786;51.270;4.456;2023-08-20T12:19:13;3.88;;;2.00;;
9496;SDS011;4786;51.270;4.456;2023-08-20T12:21:39;5.63;;;2.00;;
9496;SDS011;4786;51.270;4.456;2023-08-20T12:24:07;3.40;;;1.88;;
9496;SDS011;4786;51.270;4.456;2023-08-20T12:26:33;3.63;;;1.90;;
9496;SDS011;4786;51.270;4.456;2023-08-20T12:28:59;3.85;;;1.77;;
9496;SDS011;4786;51.270;4.456;2023-08-20T12:31:24;3.30;;;1.65;;
9496;SDS011;4786;51.270;4.456;2023-08-20T12:33:50;3.97;;;1.90;;
9496;SDS011;4786;51.270;4.456;2023-08-20T12:36:17;4.38;;;1.85;;
9496;SDS011;4786;51.270;4.456;2023-08-20T12:38:42;4.28;;;2.08;;
9496;SDS011;4786;51.270;4.456;2023-08-20T12:41:08;2.60;;;1.73;;
9496;SDS011;4786;51.270;4.456;2023-08-20T12:43:34;3.63;;;1.63;;
9496;SDS011;4786;51.270;4.456;2023-08-20T12:46:00;4.53;;;1.63;;
9496;SDS011;4786;51.270;4.456;2023-08-20T12:48:26;4.30;;;1.80;;
9496;SDS011;4786;51.270;4.456;2023-08-20T12:50:51;4.35;;;2.10;;
9496;SDS011;4786;51.270;4.456;2023-08-20T12:53:17;3.17;;;1.80;;
9496;SDS011;4786;51.270;4.456;2023-08-20T12:55:43;4.88;;;1.90;;
9496;SDS011;4786;51.270;4.456;2023-08-20T12:58:09;3.47;;;1.75;;
9496;SDS011;4786;51.270;4.456;2023-08-20T13:00:36;4.20;;;1.83;;
9496;SDS011;4786;51.270;4.456;2023-08-20T13:03:02;5.18;;;2.08;;
9496;SDS011;4786;51.270;4.456;2023-08-20T13:05:28;5.63;;;2.20;;
9496;SDS011;4786;51.270;4.456;2023-08-20T13:07:55;4.10;;;1.80;;
9496;SDS011;4786;51.270;4.456;2023-08-20T13:10:21;4.80;;;1.88;;
9496;SDS011;4786;51.270;4.456;2023-08-20T13:12:48;4.72;;;1.92;;
9496;SDS011;4786;51.270;4.456;2023-08-20T13:15:19;5.30;;;2.08;;
9496;SDS011;4786;51.270;4.456;2023-08-20T13:17:47;5.75;;;1.95;;
9496;SDS011;4786;51.270;4.456;2023-08-20T13:20:14;3.72;;;1.80;;
9496;SDS011;4786;51.270;4.456;2023-08-20T13:22:40;4.28;;;1.85;;
9496;SDS011;4786;51.270;4.456;2023-08-20T13:25:07;4.57;;;1.98;;
9496;SDS011;4786;51.270;4.456;2023-08-20T13:27:32;4.15;;;1.85;;
9496;SDS011;4786;51.270;4.456;2023-08-20T13:29:59;4.03;;;1.60;;
9496;SDS011;4786;51.270;4.456;2023-08-20T13:32:26;4.45;;;2.00;;
9496;SDS011;4786;51.270;4.456;2023-08-20T13:34:51;6.45;;;2.00;;
9496;SDS011;4786;51.270;4.456;2023-08-20T13:37:17;5.30;;;1.80;;
9496;SDS011;4786;51.270;4.456;2023-08-20T13:39:43;4.22;;;1.85;;
9496;SDS011;4786;51.270;4.456;2023-08-20T13:42:09;4.28;;;1.80;;
9496;SDS011;4786;51.270;4.456;2023-08-20T13:44:35;4.07;;;1.88;;
9496;SDS011;4786;51.270;4.456;2023-08-20T13:47:01;3.97;;;1.90;;
9496;SDS011;4786;51.270;4.456;2023-08-20T13:49:28;3.60;;;1.63;;
9496;SDS011;4786;51.270;4.456;2023-08-20T13:51:54;4.03;;;1.77;;
9496;SDS011;4786;51.270;4.456;2023-08-20T13:54:19;6.22;;;2.05;;
9496;SDS011;4786;51.270;4.456;2023-08-20T13:56:45;4.30;;;1.75;;
9496;SDS011;4786;51.270;4.456;2023-08-20T13:59:11;4.13;;;2.00;;
9496;SDS011;4786;51.270;4.456;2023-08-20T14:01:37;5.85;;;2.15;;
9496;SDS011;4786;51.270;4.456;2023-08-20T14:04:03;4.13;;;2.10;;
9496;SDS011;4786;51.270;4.456;2023-08-20T14:06:29;5.78;;;1.98;;
9496;SDS011;4786;51.270;4.456;2023-08-20T14:09:02;5.82;;;2.17;;
9496;SDS011;4786;51.270;4.456;2023-08-20T14:11:29;3.60;;;2.00;;
9496;SDS011;4786;51.270;4.456;2023-08-20T14:13:59;5.05;;;2.22;;
9496;SDS011;4786;51.270;4.456;2023-08-20T14:16:25;4.40;;;2.03;;
9496;SDS011;4786;51.270;4.456;2023-08-20T14:18:51;6.85;;;1.77;;
9496;SDS011;4786;51.270;4.456;2023-08-20T14:21:17;4.85;;;1.88;;
9496;SDS011;4786;51.270;4.456;2023-08-20T14:23:42;4.15;;;1.60;;
9496;SDS011;4786;51.270;4.456;2023-08-20T14:26:08;5.78;;;1.85;;
9496;SDS011;4786;51.270;4.456;2023-08-20T14:28:34;4.18;;;1.80;;
9496;SDS011;4786;51.270;4.456;2023-08-20T14:31:03;5.32;;;2.28;;
9496;SDS011;4786;51.270;4.456;2023-08-20T14:33:32;4.10;;;2.00;;
9496;SDS011;4786;51.270;4.456;2023-08-20T14:35:58;5.32;;;2.47;;
9496;SDS011;4786;51.270;4.456;2023-08-20T14:38:24;7.18;;;2.65;;
9496;SDS011;4786;51.270;4.456;2023-08-20T14:40:50;7.38;;;2.45;;
9496;SDS011;4786;51.270;4.456;2023-08-20T14:43:17;4.68;;;2.30;;
9496;SDS011;4786;51.270;4.456;2023-08-20T14:45:43;6.20;;;2.90;;
9496;SDS011;4786;51.270;4.456;2023-08-20T14:48:11;6.63;;;2.25;;
9496;SDS011;4786;51.270;4.456;2023-08-20T14:50:36;7.38;;;2.35;;
9496;SDS011;4786;51.270;4.456;2023-08-20T14:53:02;5.57;;;2.20;;
9496;SDS011;4786;51.270;4.456;2023-08-20T14:55:28;16.98;;;3.10;;
9496;SDS011;4786;51.270;4.456;2023-08-20T14:57:57;7.95;;;2.55;;
9496;SDS011;4786;51.270;4.456;2023-08-20T15:00:22;3.50;;;1.85;;
9496;SDS011;4786;51.270;4.456;2023-08-20T15:02:49;8.13;;;2.28;;
9496;SDS011;4786;51.270;4.456;2023-08-20T15:05:15;3.95;;;2.13;;
9496;SDS011;4786;51.270;4.456;2023-08-20T15:07:44;6.85;;;2.30;;
9496;SDS011;4786;51.270;4.456;2023-08-20T15:10:09;6.18;;;1.80;;
9496;SDS011;4786;51.270;4.456;2023-08-20T15:12:36;6.40;;;2.20;;
9496;SDS011;4786;51.270;4.456;2023-08-20T15:15:05;6.18;;;2.58;;
9496;SDS011;4786;51.270;4.456;2023-08-20T15:17:33;4.47;;;1.77;;
9496;SDS011;4786;51.270;4.456;2023-08-20T15:19:59;4.32;;;1.70;;